createdAt,value
2018-04-10T00:01:15.580Z,67.67
2018-04-10T00:03:43.037Z,68.80
2018-04-10T00:06:10.520Z,63.67
2018-04-10T00:08:38.732Z,66.60
2018-04-10T00:11:06.207Z,68.30
2018-04-10T00:13:33.712Z,65.63
2018-04-10T00:16:01.945Z,65.57
2018-04-10T00:18:29.407Z,61.10
2018-04-10T00:20:56.891Z,60.23
2018-04-10T00:23:25.121Z,59.47
2018-04-10T00:25:52.584Z,62.40
2018-04-10T00:28:20.117Z,56.77
2018-04-10T00:30:48.296Z,65.27
2018-04-10T00:33:15.760Z,60.63
2018-04-10T00:35:43.248Z,54.30
2018-04-10T00:38:10.714Z,56.97
2018-04-10T00:40:38.176Z,59.63
2018-04-10T00:43:06.420Z,54.63
2018-04-10T00:45:33.884Z,64.80
2018-04-10T00:48:01.349Z,64.67
2018-04-10T00:50:28.961Z,61.10
2018-04-10T00:55:57.719Z,58.93
2018-04-10T00:58:25.178Z,65.50
2018-04-10T01:00:52.648Z,64.53
2018-04-10T01:03:21.566Z,69.20
2018-04-10T01:05:49.028Z,60.57
2018-04-10T01:08:16.493Z,61.47
2018-04-10T01:10:43.983Z,65.83
2018-04-10T01:13:11.444Z,58.70
2018-04-10T01:15:38.912Z,71.87
2018-04-10T01:18:07.163Z,63.83
2018-04-10T01:20:34.684Z,60.83
2018-04-10T01:23:02.244Z,65.97
2018-04-10T01:25:29.721Z,69.93
2018-04-10T01:27:57.186Z,68.73
2018-04-10T01:30:24.714Z,69.73
2018-04-10T01:32:52.192Z,70.30
2018-04-10T01:35:19.658Z,70.90
2018-04-10T01:37:47.118Z,70.30
2018-04-10T01:40:14.607Z,74.10
2018-04-10T01:42:42.838Z,74.30
2018-04-10T01:45:10.295Z,82.93
2018-04-10T01:47:37.774Z,74.40
2018-04-10T01:50:05.251Z,67.87
2018-04-10T01:52:33.504Z,74.13
2018-04-10T01:55:01.119Z,73.17
2018-04-10T01:57:28.573Z,74.40
2018-04-10T01:59:56.039Z,76.40
2018-04-10T02:02:23.525Z,72.50
2018-04-10T02:04:50.973Z,68.33
2018-04-10T02:07:18.438Z,71.30
2018-04-10T02:14:52.590Z,76.80
2018-04-10T02:17:20.049Z,79.60
2018-04-10T02:19:47.534Z,76.30
2018-04-10T02:22:15.762Z,70.83
2018-04-10T02:24:43.235Z,76.93
2018-04-10T02:27:10.716Z,75.60
2018-04-10T02:29:38.960Z,77.70
2018-04-10T02:32:06.425Z,74.97
2018-04-10T02:34:34.053Z,76.73
2018-04-10T02:37:01.601Z,80.83
2018-04-10T02:39:29.156Z,81.57
2018-04-10T02:41:56.632Z,74.83
2018-04-10T02:44:24.105Z,87.90
2018-04-10T02:46:51.579Z,78.10
2018-04-10T02:49:19.051Z,79.30
2018-04-10T02:51:47.291Z,82.67
2018-04-10T02:54:14.740Z,80.50
2018-04-10T02:56:42.227Z,80.90
2018-04-10T02:59:09.688Z,78.03
2018-04-10T03:01:37.919Z,78.73
2018-04-10T03:04:05.404Z,77.33
2018-04-10T03:06:32.863Z,74.87
2018-04-10T03:09:00.331Z,70.33
2018-04-10T03:11:27.804Z,76.10
2018-04-10T03:13:56.028Z,78.07
2018-04-10T03:16:23.497Z,76.67
2018-04-10T03:18:51.164Z,77.60
2018-04-10T03:21:18.620Z,80.43
2018-04-10T03:23:46.101Z,75.37
2018-04-10T03:26:13.573Z,84.17
2018-04-10T03:28:41.042Z,84.17
2018-04-10T03:31:08.509Z,86.90
2018-04-10T03:33:35.992Z,81.17
2018-04-10T03:36:03.457Z,81.93
2018-04-10T03:38:30.941Z,78.50
2018-04-10T03:40:59.165Z,71.47
2018-04-10T03:43:26.633Z,81.10
2018-04-10T03:45:54.110Z,72.60
2018-04-10T03:48:23.073Z,85.57
2018-04-10T03:50:50.699Z,74.50
2018-04-10T03:53:18.164Z,71.70
2018-04-10T03:55:45.897Z,87.80
2018-04-10T03:58:13.336Z,76.53
2018-04-10T04:00:40.824Z,77.83
2018-04-10T04:03:09.057Z,72.47
2018-04-10T04:05:36.516Z,76.63
2018-04-10T04:08:04.005Z,79.70
2018-04-10T04:10:32.239Z,74.67
2018-04-10T04:12:59.703Z,81.23
2018-04-10T04:15:27.181Z,79.20
2018-04-10T04:17:55.404Z,77.87
2018-04-10T04:20:34.676Z,79.10
2018-04-10T04:23:02.138Z,74.23
2018-04-10T04:25:29.604Z,75.47
2018-04-10T04:27:57.860Z,73.20
2018-04-10T04:30:25.324Z,76.40
2018-04-10T04:32:52.792Z,73.23
2018-04-10T04:35:20.282Z,70.50
2018-04-10T04:37:47.740Z,82.73
2018-04-10T04:40:15.246Z,82.00
2018-04-10T04:42:43.512Z,74.27
2018-04-10T04:45:11.088Z,75.33
2018-04-10T04:47:38.552Z,75.63
2018-04-10T04:50:06.797Z,81.47
2018-04-10T04:52:34.261Z,76.00
2018-04-10T04:55:03.228Z,72.73
2018-04-10T04:57:30.730Z,71.50
2018-04-10T04:59:58.985Z,77.53
2018-04-10T05:02:26.455Z,78.30
2018-04-10T05:04:53.936Z,73.20
2018-04-10T05:07:21.515Z,78.83
2018-04-10T05:09:48.964Z,76.13
2018-04-10T05:12:16.458Z,78.70
2018-04-10T05:14:43.916Z,64.87
2018-04-10T05:17:11.380Z,66.77
2018-04-10T05:19:38.857Z,67.13
2018-04-10T05:22:07.148Z,70.13
2018-04-10T05:24:35.385Z,76.53
2018-04-10T05:27:02.905Z,69.53
2018-04-10T05:29:30.373Z,67.00
2018-04-10T05:31:57.832Z,58.00
2018-04-10T05:34:25.314Z,56.70
2018-04-10T05:36:52.795Z,62.37
2018-04-10T05:39:21.021Z,65.53
2018-04-10T05:41:48.522Z,60.13
2018-04-10T05:44:16.785Z,55.50
2018-04-10T05:46:44.263Z,56.60
2018-04-10T05:49:12.512Z,54.30
2018-04-10T05:51:39.988Z,63.93
2018-04-10T05:54:08.233Z,60.90
2018-04-10T05:56:36.090Z,55.83
2018-04-10T05:59:03.566Z,52.83
2018-04-10T06:01:31.026Z,56.93
2018-04-10T06:04:00.016Z,59.23
2018-04-10T06:06:27.490Z,62.33
2018-04-10T06:08:55.757Z,55.93
2018-04-10T06:11:23.245Z,57.40
2018-04-10T06:13:50.721Z,52.53
2018-04-10T06:16:18.182Z,60.73
2018-04-10T06:18:45.660Z,57.83
2018-04-10T06:21:13.122Z,56.17
2018-04-10T06:23:40.590Z,56.33
2018-04-10T06:26:08.075Z,51.73
2018-04-10T06:28:36.308Z,53.80
2018-04-10T06:31:03.777Z,52.93
2018-04-10T06:33:31.264Z,54.40
2018-04-10T06:35:59.512Z,53.70
2018-04-10T06:38:26.969Z,49.57
2018-04-10T06:40:54.479Z,49.33
2018-04-10T06:43:21.953Z,47.07
2018-04-10T06:45:49.416Z,51.00
2018-04-10T06:48:16.889Z,46.27
2018-04-10T06:50:45.151Z,49.97
2018-04-10T06:53:12.613Z,43.60
2018-04-10T06:55:40.097Z,47.30
2018-04-10T06:58:08.332Z,44.07
2018-04-10T07:00:35.812Z,41.10
2018-04-10T07:03:03.292Z,39.80
2018-04-10T07:05:31.519Z,40.70
2018-04-10T07:07:58.997Z,37.90
2018-04-10T07:10:26.472Z,41.33
2018-04-10T07:12:53.939Z,37.33
2018-04-10T07:15:22.176Z,38.60
2018-04-10T07:17:49.658Z,38.00
2018-04-10T07:20:17.135Z,33.53
2018-04-10T07:22:45.383Z,31.97
2018-04-10T07:25:12.866Z,30.43
2018-04-10T07:27:41.124Z,34.20
2018-04-10T07:30:08.564Z,33.70
2018-04-10T07:32:36.052Z,31.83
2018-04-10T07:35:04.355Z,32.80
2018-04-10T07:37:31.910Z,31.07
2018-04-10T07:39:59.477Z,35.93
2018-04-10T07:42:27.028Z,28.47
2018-04-10T07:44:54.488Z,27.40
2018-04-10T07:47:21.999Z,29.67
2018-04-10T07:49:50.241Z,32.37
2018-04-10T07:52:17.704Z,29.73
2018-04-10T07:54:45.191Z,29.00
2018-04-10T07:57:12.652Z,29.70
2018-04-10T07:59:40.898Z,26.30
2018-04-10T08:02:08.379Z,27.67
2018-04-10T08:04:36.604Z,28.73
2018-04-10T08:07:04.088Z,29.90
2018-04-10T08:09:31.607Z,27.13
2018-04-10T08:11:59.080Z,23.97
2018-04-10T08:14:26.552Z,27.17
2018-04-10T08:16:54.032Z,26.30
2018-04-10T08:19:22.275Z,25.40
2018-04-10T08:21:49.734Z,23.97
2018-04-10T08:24:17.225Z,30.07
2018-04-10T08:26:44.682Z,27.70
2018-04-10T08:29:12.908Z,25.50
2018-04-10T08:31:40.402Z,26.30
2018-04-10T08:34:07.859Z,28.90
2018-04-10T08:36:35.324Z,27.07
2018-04-10T08:39:03.574Z,24.13
2018-04-10T08:41:31.046Z,22.80
2018-04-10T08:43:58.512Z,21.93
2018-04-10T08:46:26.760Z,20.93
2018-04-10T08:48:54.240Z,16.60
2018-04-10T08:51:21.690Z,13.63
2018-04-10T08:53:49.172Z,13.27
2018-04-10T08:56:17.392Z,12.10
2018-04-10T08:58:44.864Z,10.57
2018-04-10T09:01:13.858Z,9.77
2018-04-10T09:03:41.324Z,14.17
2018-04-10T09:06:08.781Z,10.73
2018-04-10T09:08:36.275Z,8.77
2018-04-10T09:11:03.735Z,12.90
2018-04-10T09:13:31.189Z,11.27
2018-04-10T09:15:58.692Z,11.70
2018-04-10T09:18:26.153Z,11.33
2018-04-10T09:20:53.616Z,11.37
2018-04-10T09:23:21.142Z,10.17
2018-04-10T09:25:48.596Z,16.27
2018-04-10T09:28:16.092Z,8.93
2018-04-10T09:30:43.579Z,9.37
2018-04-10T09:33:11.045Z,11.90
2018-04-10T09:35:38.524Z,10.50
2018-04-10T09:38:05.982Z,8.60
2018-04-10T09:40:33.445Z,16.47
2018-04-10T09:43:00.925Z,12.77
2018-04-10T09:45:28.397Z,9.37
2018-04-10T09:47:55.852Z,10.90
2018-04-10T09:50:23.352Z,9.10
2018-04-10T09:52:50.930Z,11.30
2018-04-10T09:55:18.386Z,10.10
2018-04-10T09:57:45.878Z,8.00
2018-04-10T10:00:13.331Z,15.43
2018-04-10T10:02:40.804Z,9.37
2018-04-10T10:05:09.048Z,9.30
2018-04-10T10:07:36.570Z,11.37
2018-04-10T10:10:04.033Z,10.43
2018-04-10T10:12:31.501Z,8.87
2018-04-10T10:14:58.994Z,7.40
2018-04-10T10:17:26.428Z,9.60
2018-04-10T10:19:53.955Z,9.10
2018-04-10T10:22:22.157Z,11.60
2018-04-10T10:24:49.624Z,16.10
2018-04-10T10:27:17.102Z,7.70
2018-04-10T10:29:45.338Z,10.70
2018-04-10T10:32:12.800Z,10.20
2018-04-10T10:34:40.277Z,11.03
2018-04-10T10:37:07.743Z,10.17
2018-04-10T10:39:35.332Z,10.57
2018-04-10T10:42:02.811Z,8.57
2018-04-10T10:44:30.281Z,13.40
2018-04-10T10:46:57.816Z,10.03
2018-04-10T10:49:25.288Z,11.50
2018-04-10T10:51:52.755Z,6.70
2018-04-10T10:54:20.234Z,8.60
2018-04-10T10:56:47.743Z,15.00
2018-04-10T10:59:15.197Z,11.00
2018-04-10T11:01:42.673Z,9.30
2018-04-10T11:04:10.137Z,15.57
2018-04-10T11:06:37.605Z,10.30
2018-04-10T11:09:07.636Z,10.20
2018-04-10T11:11:35.096Z,10.63
2018-04-10T11:14:02.550Z,8.90
2018-04-10T11:16:30.023Z,8.77
2018-04-10T11:18:58.250Z,12.73
2018-04-10T11:21:25.720Z,11.67
2018-04-10T11:23:53.203Z,14.23
2018-04-10T11:26:20.664Z,12.23
2018-04-10T11:28:48.888Z,12.23
2018-04-10T11:31:16.363Z,13.33
2018-04-10T11:33:43.836Z,61.17
2018-04-10T11:36:11.305Z,12.70
2018-04-10T11:38:39.540Z,11.70
2018-04-10T11:41:07.014Z,11.83
2018-04-10T11:43:34.465Z,9.00
2018-04-10T11:46:01.952Z,12.70
2018-04-10T11:48:29.424Z,14.37
2018-04-10T11:50:57.640Z,11.60
2018-04-10T11:53:25.112Z,10.47
2018-04-10T11:55:52.585Z,10.00
2018-04-10T11:58:20.051Z,8.70
2018-04-10T12:00:48.304Z,9.83
2018-04-10T12:03:15.764Z,8.67
2018-04-10T12:05:43.277Z,8.10
2018-04-10T12:08:10.858Z,9.60
2018-04-10T12:10:38.341Z,9.30
2018-04-10T12:13:05.821Z,8.07
2018-04-10T12:15:34.060Z,14.40
2018-04-10T12:18:01.552Z,25.40
2018-04-10T12:20:29.773Z,8.80
2018-04-10T12:22:57.241Z,11.00
2018-04-10T12:25:24.713Z,7.40
2018-04-10T12:27:52.172Z,10.60
2018-04-10T12:30:19.636Z,11.97
2018-04-10T12:32:47.121Z,9.20
2018-04-10T12:35:14.599Z,11.90
2018-04-10T12:37:42.064Z,6.87
2018-04-10T12:40:09.532Z,6.50
2018-04-10T12:42:37.001Z,7.27
2018-04-10T12:45:04.453Z,6.50
2018-04-10T12:47:31.938Z,6.30
2018-04-10T12:50:00.180Z,6.40
2018-04-10T12:52:27.645Z,12.43
2018-04-10T12:54:55.139Z,9.07
2018-04-10T12:57:23.371Z,6.00
2018-04-10T12:59:50.830Z,7.67
2018-04-10T13:02:18.349Z,9.50
2018-04-10T13:04:46.564Z,9.23
2018-04-10T13:07:14.032Z,12.97
2018-04-10T13:09:41.511Z,12.93
2018-04-10T13:12:09.757Z,8.90
2018-04-10T13:14:37.212Z,16.13
2018-04-10T13:17:04.684Z,10.43
2018-04-10T13:19:32.144Z,13.80
2018-04-10T13:22:00.360Z,9.50
2018-04-10T13:24:27.844Z,11.00
2018-04-10T13:26:55.316Z,10.97
2018-04-10T13:29:22.781Z,18.60
2018-04-10T13:31:50.265Z,12.47
2018-04-10T13:34:17.741Z,11.50
2018-04-10T13:36:45.361Z,9.67
2018-04-10T13:39:12.832Z,14.70
2018-04-10T13:41:41.056Z,14.63
2018-04-10T13:44:08.515Z,9.07
2018-04-10T13:46:35.995Z,10.97
2018-04-10T13:49:03.465Z,11.27
2018-04-10T13:51:31.709Z,12.70
2018-04-10T13:53:59.188Z,12.50
2018-04-10T13:56:26.652Z,19.97
2018-04-10T13:58:54.901Z,11.30
2018-04-10T14:01:22.376Z,9.37
2018-04-10T14:03:50.698Z,8.77
2018-04-10T14:06:18.177Z,14.10
2018-04-10T14:08:45.650Z,11.57
2018-04-10T14:11:13.109Z,11.20
2018-04-10T14:13:40.585Z,10.10
2018-04-10T14:16:08.832Z,12.97
2018-04-10T14:18:36.326Z,11.40
2018-04-10T14:21:04.594Z,14.57
2018-04-10T14:23:32.837Z,9.67
2018-04-10T14:26:00.338Z,8.93
2018-04-10T14:28:28.606Z,14.47
2018-04-10T14:30:56.851Z,12.23
2018-04-10T14:33:24.316Z,13.87
2018-04-10T14:35:51.825Z,10.60
2018-04-10T14:38:19.300Z,14.00
2018-04-10T14:40:46.756Z,8.50
2018-04-10T14:43:14.249Z,16.17
2018-04-10T14:45:41.709Z,11.53
2018-04-10T14:48:09.263Z,12.90
2018-04-10T14:50:36.762Z,9.90
2018-04-10T14:53:04.988Z,9.40
2018-04-10T14:55:32.444Z,9.20
2018-04-10T14:58:01.430Z,13.07
2018-04-10T15:00:28.892Z,8.83
2018-04-10T15:02:57.225Z,11.97
2018-04-10T15:05:24.688Z,14.10
2018-04-10T15:07:52.148Z,11.27
2018-04-10T15:10:19.614Z,12.73
2018-04-10T15:12:47.088Z,14.83
2018-04-10T15:15:14.548Z,8.17
2018-04-10T15:17:42.013Z,11.03
2018-04-10T15:20:09.624Z,10.77
2018-04-10T15:22:37.087Z,10.07
2018-04-10T15:25:04.553Z,14.00
2018-04-10T15:27:32.015Z,10.13
2018-04-10T15:29:59.482Z,9.93
2018-04-10T15:32:26.964Z,11.17
2018-04-10T15:34:55.215Z,10.30
2018-04-10T15:37:22.692Z,10.33
2018-04-10T15:39:50.935Z,15.00
2018-04-10T15:42:18.392Z,9.90
2018-04-10T15:44:45.868Z,10.63
2018-04-10T15:47:13.340Z,8.30
2018-04-10T15:49:41.594Z,14.10
2018-04-10T15:52:09.039Z,9.20
2018-04-10T15:54:36.552Z,18.77
2018-04-10T15:57:04.759Z,9.20
2018-04-10T15:59:32.237Z,10.53
2018-04-10T16:01:59.731Z,10.10
2018-04-10T16:04:27.964Z,8.60
2018-04-10T16:06:55.448Z,12.53
2018-04-10T16:09:23.702Z,11.93
2018-04-10T16:11:51.165Z,11.43
2018-04-10T16:14:18.665Z,9.83
2018-04-10T16:16:46.132Z,8.73
2018-04-10T16:19:13.597Z,11.07
2018-04-10T16:21:41.076Z,9.10
2018-04-10T16:24:08.732Z,10.27
2018-04-10T16:26:36.181Z,10.53
2018-04-10T16:29:04.951Z,13.63
2018-04-10T16:31:32.409Z,16.47
2018-04-10T16:33:59.973Z,7.20
2018-04-10T16:36:27.441Z,7.43
2018-04-10T16:38:54.916Z,13.17
2018-04-10T16:41:22.401Z,12.90
2018-04-10T16:43:50.644Z,11.73
2018-04-10T16:46:18.132Z,15.07
2018-04-10T16:48:46.405Z,8.90
2018-04-10T16:51:13.860Z,10.30
2018-04-10T16:53:42.278Z,9.97
2018-04-10T16:56:09.752Z,13.63
2018-04-10T16:58:37.224Z,14.83
2018-04-10T17:01:04.681Z,12.93
2018-04-10T17:03:32.177Z,11.47
2018-04-10T17:06:00.409Z,14.70
2018-04-10T17:08:27.881Z,10.13
2018-04-10T17:10:56.155Z,10.20
2018-04-10T17:13:23.617Z,10.33
2018-04-10T17:15:51.099Z,10.80
2018-04-10T17:18:19.340Z,8.23
2018-04-10T17:20:46.815Z,19.27
2018-04-10T17:23:15.067Z,10.43
2018-04-10T17:25:42.545Z,13.00
2018-04-10T17:28:10.781Z,13.90
2018-04-10T17:30:38.241Z,12.07
2018-04-10T17:33:05.752Z,12.77
2018-04-10T17:35:33.252Z,11.33
2018-04-10T17:38:01.417Z,13.37
2018-04-10T17:40:29.845Z,11.30
2018-04-10T17:43:00.873Z,12.60
2018-04-10T17:45:28.408Z,17.67
2018-04-10T17:47:57.506Z,13.43
2018-04-10T17:50:24.982Z,10.13
2018-04-10T17:52:53.273Z,13.00
2018-04-10T17:55:20.767Z,16.83
2018-04-10T17:57:49.289Z,17.17
2018-04-10T18:00:16.760Z,28.70
2018-04-10T18:02:44.989Z,27.90
2018-04-10T18:05:12.487Z,23.47
2018-04-10T18:07:39.961Z,18.33
2018-04-10T18:10:08.194Z,14.90
2018-04-10T18:12:36.856Z,22.17
2018-04-10T18:15:04.322Z,22.27
2018-04-10T18:17:31.804Z,19.13
2018-04-10T18:20:00.454Z,17.50
2018-04-10T18:22:27.932Z,21.43
2018-04-10T18:24:55.400Z,21.87
2018-04-10T18:27:24.441Z,34.10
2018-04-10T18:29:51.910Z,19.20
2018-04-10T18:32:19.408Z,20.77
2018-04-10T18:34:46.886Z,24.03
2018-04-10T18:37:15.118Z,24.53
2018-04-10T18:39:42.592Z,32.03
2018-04-10T18:42:10.085Z,24.33
2018-04-10T18:44:37.546Z,28.03
2018-04-10T18:47:05.848Z,28.33
2018-04-10T18:49:33.330Z,30.00
2018-04-10T18:52:00.794Z,31.00
2018-04-10T18:54:28.256Z,25.70
2018-04-10T18:56:55.773Z,29.00
2018-04-10T18:59:23.261Z,25.80
2018-04-10T19:01:50.728Z,23.47
2018-04-10T19:04:18.225Z,24.67
2018-04-10T19:06:46.445Z,25.23
2018-04-10T19:09:13.955Z,25.00
2018-04-10T19:11:42.260Z,22.50
2018-04-10T19:14:09.745Z,30.30
2018-04-10T19:16:37.266Z,23.67
2018-04-10T19:19:04.758Z,32.13
2018-04-10T19:21:32.221Z,29.90
2018-04-10T19:23:59.730Z,30.62
2018-04-10T19:26:27.179Z,27.00
2018-04-10T19:28:54.652Z,31.17
2018-04-10T19:31:22.128Z,33.30
2018-04-10T19:33:49.664Z,33.47
2018-04-10T19:36:17.124Z,48.27
2018-04-10T19:38:44.621Z,58.70
2018-04-10T19:41:12.114Z,56.57
2018-04-10T19:43:40.346Z,56.00
2018-04-10T19:46:07.971Z,54.23
2018-04-10T19:48:35.473Z,52.37
2018-04-10T19:51:02.941Z,44.37
2018-04-10T19:53:30.426Z,42.03
2018-04-10T19:55:57.902Z,46.60
2018-04-10T19:58:25.365Z,36.13
2018-04-10T20:00:52.877Z,53.57
2018-04-10T20:03:21.105Z,30.20
2018-04-10T20:05:48.576Z,26.30
2018-04-10T20:08:16.084Z,35.20
2018-04-10T20:10:43.553Z,29.50
2018-04-10T20:13:11.027Z,30.43
2018-04-10T20:15:38.554Z,35.50
2018-04-10T20:18:06.778Z,35.57
2018-04-10T20:20:34.244Z,42.30
2018-04-10T20:23:01.752Z,41.60
2018-04-10T20:25:29.218Z,45.53
2018-04-10T20:27:56.774Z,52.37
2018-04-10T20:30:24.277Z,42.93
2018-04-10T20:32:51.749Z,33.67
2018-04-10T20:35:19.968Z,41.40
2018-04-10T20:37:47.456Z,41.50
2018-04-10T20:40:14.960Z,46.13
2018-04-10T20:42:42.451Z,40.97
2018-04-10T20:45:09.928Z,48.30
2018-04-10T20:47:37.460Z,41.63
2018-04-10T20:50:04.921Z,48.00
2018-04-10T20:52:32.408Z,43.70
2018-04-10T20:54:59.905Z,48.77
2018-04-10T20:57:27.356Z,44.97
2018-04-10T20:59:54.871Z,51.93
2018-04-10T21:02:22.339Z,51.13
2018-04-10T21:04:49.827Z,52.33
2018-04-10T21:07:18.083Z,47.23
2018-04-10T21:09:45.548Z,56.07
2018-04-10T21:12:13.784Z,52.13
2018-04-10T21:14:41.272Z,47.83
2018-04-10T21:17:08.724Z,38.77
2018-04-10T21:19:36.960Z,36.43
2018-04-10T21:22:04.473Z,37.23
2018-04-10T21:24:32.684Z,30.57
2018-04-10T21:27:00.151Z,29.50
2018-04-10T21:29:27.641Z,30.57
2018-04-10T21:31:55.107Z,28.30
2018-04-10T21:34:23.342Z,33.80
2018-04-10T21:36:50.844Z,33.73
2018-04-10T21:39:19.078Z,35.63
2018-04-10T21:41:46.552Z,32.63
2018-04-10T21:44:14.045Z,31.30
2018-04-10T21:46:41.500Z,35.47
2018-04-10T21:49:08.960Z,29.90
2018-04-10T21:51:36.448Z,25.20
2018-04-10T21:54:03.916Z,25.27
2018-04-10T21:56:31.377Z,34.03
2018-04-10T21:58:58.863Z,22.30
2018-04-10T22:01:27.092Z,26.63
2018-04-10T22:03:54.544Z,21.10
2018-04-10T22:06:22.029Z,19.20
2018-04-10T22:08:49.550Z,16.17
2018-04-10T22:11:17.749Z,17.33
2018-04-10T22:13:45.234Z,16.13
2018-04-10T22:16:12.705Z,14.43
2018-04-10T22:18:40.957Z,14.90
2018-04-10T22:21:09.176Z,13.20
2018-04-10T22:23:36.641Z,18.33
2018-04-10T22:26:04.116Z,21.63
2018-04-10T22:28:31.580Z,17.20
2018-04-10T22:30:59.044Z,23.00
2018-04-10T22:33:26.516Z,23.27
2018-04-10T22:35:54.738Z,25.07
2018-04-10T22:38:22.196Z,20.33
2018-04-10T22:40:49.691Z,19.00
2018-04-10T22:43:17.905Z,19.53
2018-04-10T22:45:45.381Z,13.27
2018-04-10T22:48:12.878Z,10.50
2018-04-10T22:50:41.116Z,13.93
2018-04-10T22:53:08.569Z,11.90
2018-04-10T22:55:36.049Z,14.57
2018-04-10T22:58:03.514Z,11.00
2018-04-10T23:00:54.494Z,8.70
2018-04-10T23:03:21.948Z,7.73
2018-04-10T23:05:49.481Z,7.57
2018-04-10T23:08:16.968Z,7.30
2018-04-10T23:10:44.436Z,8.60
2018-04-10T23:13:11.910Z,9.47
2018-04-10T23:15:39.377Z,10.10
2018-04-10T23:18:06.840Z,11.17
2018-04-10T23:20:35.088Z,8.80
2018-04-10T23:23:02.557Z,7.37
2018-04-10T23:25:30.025Z,10.83
2018-04-10T23:27:58.262Z,9.70
2018-04-10T23:30:25.718Z,10.23
2018-04-10T23:32:53.178Z,12.03
2018-04-10T23:35:20.657Z,9.20
2018-04-10T23:37:48.113Z,8.97
2018-04-10T23:40:15.577Z,14.10
2018-04-10T23:42:43.071Z,9.13
2018-04-10T23:45:11.309Z,11.00
2018-04-10T23:47:38.768Z,12.47
2018-04-10T23:50:06.252Z,9.10
2018-04-10T23:52:34.472Z,7.43
2018-04-10T23:55:01.962Z,6.80
2018-04-10T23:57:30.213Z,9.90
2018-04-10T23:59:57.673Z,6.83
